createdAt,value
2023-07-03T00:09:14.952Z,55.04
2023-07-03T00:11:41.734Z,55.15
2023-07-03T00:14:08.328Z,55.44
2023-07-03T00:16:34.891Z,55.57
2023-07-03T00:19:01.755Z,55.59
2023-07-03T00:21:28.587Z,54.94
2023-07-03T00:23:55.522Z,55.45
2023-07-03T00:26:22.192Z,55.79
2023-07-03T00:28:49.333Z,55.54
2023-07-03T00:31:16.247Z,55.27
2023-07-03T00:33:43.024Z,55.59
2023-07-03T00:36:11.144Z,55.92
2023-07-03T00:38:38.113Z,56.33
2023-07-03T00:41:05.509Z,56.73
2023-07-03T00:43:34.289Z,56.46
2023-07-03T00:46:02.353Z,56.99
2023-07-03T00:48:32.464Z,57.75
2023-07-03T00:50:59.717Z,57.36
2023-07-03T00:53:26.592Z,57.11
2023-07-03T00:55:53.445Z,57.98
2023-07-03T00:58:20.854Z,59.04
2023-07-03T01:01:01.209Z,58.68
2023-07-03T01:03:41.785Z,59.63
2023-07-03T01:06:20.642Z,60.07
2023-07-03T01:08:56.082Z,59.32
2023-07-03T01:11:23.391Z,60.46
2023-07-03T01:13:53.315Z,60.45
2023-07-03T01:16:21.286Z,60.32
2023-07-03T01:18:50.506Z,60.00
2023-07-03T01:21:23.821Z,60.54
2023-07-03T01:24:06.626Z,60.41
2023-07-03T01:26:35.649Z,61.22
2023-07-03T01:29:03.481Z,60.38
2023-07-03T01:31:32.979Z,60.93
2023-07-03T01:34:01.689Z,60.92
2023-07-03T01:36:29.676Z,61.73
2023-07-03T01:39:02.337Z,62.33
2023-07-03T01:41:31.036Z,61.90
2023-07-03T01:43:58.874Z,62.00
2023-07-03T01:46:25.878Z,61.96
2023-07-03T01:48:52.955Z,62.71
2023-07-03T01:51:36.015Z,62.72
2023-07-03T01:54:15.217Z,63.38
2023-07-03T01:56:45.403Z,63.90
2023-07-03T01:59:14.750Z,63.38
2023-07-03T02:01:53.949Z,64.04
2023-07-03T02:04:27.227Z,63.63
2023-07-03T02:06:56.499Z,64.09
2023-07-03T02:09:26.632Z,64.38
2023-07-03T02:11:57.323Z,65.88
2023-07-03T02:14:25.337Z,65.37
2023-07-03T02:16:55.997Z,65.27
2023-07-03T02:19:30.049Z,65.71
2023-07-03T02:21:57.618Z,66.36
2023-07-03T02:24:24.374Z,65.97
2023-07-03T02:26:52.293Z,67.69
2023-07-03T02:29:19.699Z,67.89
2023-07-03T02:31:47.072Z,68.75
2023-07-03T02:34:16.113Z,68.69
2023-07-03T02:36:43.463Z,68.05
2023-07-03T02:39:10.698Z,69.58
2023-07-03T02:41:37.850Z,70.87
2023-07-03T02:44:05.100Z,70.58
2023-07-03T02:46:37.200Z,69.66
2023-07-03T02:49:06.533Z,71.08
2023-07-03T02:51:35.595Z,70.21
2023-07-03T02:54:06.854Z,71.77
2023-07-03T02:56:33.897Z,72.12
2023-07-03T02:59:01.323Z,70.38
2023-07-03T03:01:32.464Z,71.47
2023-07-03T03:04:00.885Z,70.74
2023-07-03T03:06:28.569Z,70.75
2023-07-03T03:08:55.482Z,72.39
2023-07-03T03:11:22.633Z,73.17
2023-07-03T03:13:53.491Z,72.38
2023-07-03T03:16:20.388Z,72.07
2023-07-03T03:18:48.668Z,73.16
2023-07-03T03:21:16.595Z,74.82
2023-07-03T03:23:46.047Z,75.27
2023-07-03T03:26:13.149Z,74.96
2023-07-03T03:28:40.068Z,76.05
2023-07-03T03:31:07.913Z,76.32
2023-07-03T03:33:39.616Z,75.74
2023-07-03T03:36:06.614Z,76.00
2023-07-03T03:38:33.335Z,77.27
2023-07-03T03:41:06.868Z,76.88
2023-07-03T03:43:38.996Z,75.94
2023-07-03T03:46:06.737Z,76.61
2023-07-03T03:48:36.668Z,76.73
2023-07-03T03:51:05.124Z,76.74
2023-07-03T03:53:34.229Z,76.50
2023-07-03T03:56:01.141Z,76.69
2023-07-03T03:58:30.530Z,76.11
2023-07-03T04:00:57.709Z,76.08
2023-07-03T04:03:24.395Z,76.90
2023-07-03T04:05:51.365Z,76.82
2023-07-03T04:08:18.330Z,76.26
2023-07-03T04:10:45.189Z,76.24
2023-07-03T04:13:12.768Z,75.87
2023-07-03T04:15:57.757Z,76.09
2023-07-03T04:18:25.352Z,75.58
2023-07-03T04:20:52.744Z,74.68
2023-07-03T04:23:19.767Z,75.04
2023-07-03T04:25:46.697Z,75.33
2023-07-03T04:28:14.356Z,75.32
2023-07-03T04:30:41.108Z,75.74
2023-07-03T04:33:07.760Z,75.26
2023-07-03T04:35:35.300Z,76.22
2023-07-03T04:38:04.552Z,76.42
2023-07-03T04:40:31.876Z,75.85
2023-07-03T04:42:58.766Z,75.17
2023-07-03T04:45:27.232Z,75.01
2023-07-03T04:47:55.121Z,73.97
2023-07-03T04:50:26.550Z,74.58
2023-07-03T04:52:56.781Z,74.10
2023-07-03T04:55:25.656Z,74.38
2023-07-03T04:57:52.588Z,73.49
2023-07-03T05:00:20.655Z,72.69
2023-07-03T05:02:49.097Z,71.70
2023-07-03T05:05:21.011Z,68.29
2023-07-03T05:07:47.946Z,64.78
2023-07-03T05:10:16.818Z,60.16
2023-07-03T05:12:46.685Z,61.21
2023-07-03T05:15:18.511Z,64.22
2023-07-03T05:17:50.430Z,66.72
2023-07-03T05:20:27.038Z,67.65
2023-07-03T05:22:55.076Z,68.61
2023-07-03T05:25:23.466Z,68.60
2023-07-03T05:27:50.322Z,68.90
2023-07-03T05:30:17.375Z,68.98
2023-07-03T05:32:44.387Z,68.25
2023-07-03T05:35:17.228Z,68.80
2023-07-03T05:37:53.217Z,68.25
2023-07-03T05:40:21.242Z,68.07
2023-07-03T05:42:48.297Z,67.75
2023-07-03T05:45:15.929Z,67.79
2023-07-03T05:47:45.381Z,67.85
2023-07-03T05:50:12.556Z,67.84
2023-07-03T05:52:41.803Z,67.79
2023-07-03T05:55:12.640Z,67.58
2023-07-03T05:57:39.837Z,67.78
2023-07-03T06:00:14.208Z,67.72
2023-07-03T06:02:47.670Z,66.72
2023-07-03T06:05:17.667Z,66.22
2023-07-03T06:07:44.855Z,66.28
2023-07-03T06:10:14.392Z,65.96
2023-07-03T06:12:42.871Z,65.68
2023-07-03T06:15:10.883Z,65.32
2023-07-03T06:17:40.036Z,64.40
2023-07-03T06:20:08.586Z,64.43
2023-07-03T06:22:35.474Z,64.36
2023-07-03T06:25:07.538Z,63.98
2023-07-03T06:27:39.380Z,63.23
2023-07-03T06:30:08.502Z,63.27
2023-07-03T06:32:43.061Z,62.40
2023-07-03T06:35:10.854Z,62.55
2023-07-03T06:37:40.568Z,61.98
2023-07-03T06:40:14.390Z,61.47
2023-07-03T06:42:53.606Z,60.76
2023-07-03T06:45:20.867Z,61.01
2023-07-03T06:47:47.730Z,61.28
2023-07-03T06:50:14.438Z,61.02
2023-07-03T06:52:42.703Z,60.56
2023-07-03T06:55:09.896Z,60.04
2023-07-03T06:57:54.415Z,59.20
2023-07-03T07:00:21.120Z,58.30
2023-07-03T07:02:47.928Z,56.99
2023-07-03T07:05:14.795Z,57.00
2023-07-03T07:07:41.470Z,55.09
2023-07-03T07:10:08.785Z,52.51
2023-07-03T07:12:35.970Z,51.32
2023-07-03T07:15:03.260Z,47.59
2023-07-03T07:17:45.839Z,44.99
2023-07-03T07:20:17.070Z,46.58
2023-07-03T07:22:44.268Z,48.30
2023-07-03T07:25:10.933Z,49.23
2023-07-03T07:27:44.292Z,48.03
2023-07-03T07:58:39.945Z,50.89
2023-07-03T08:33:36.863Z,52.98
2023-07-03T09:25:44.339Z,51.14
2023-07-03T09:36:01.130Z,47.11
2023-07-03T09:41:39.722Z,43.73
2023-07-03T09:53:48.998Z,46.64
2023-07-03T09:59:21.588Z,42.70
2023-07-03T10:13:12.861Z,37.42
2023-07-03T10:15:42.180Z,37.15
2023-07-03T10:18:21.446Z,39.20
2023-07-03T10:20:51.754Z,40.49
2023-07-03T10:23:26.451Z,41.13
2023-07-03T10:25:58.576Z,41.29
2023-07-03T10:28:30.487Z,41.23
2023-07-03T10:31:00.805Z,40.74
2023-07-03T10:33:33.754Z,40.99
2023-07-03T10:36:05.813Z,40.81
2023-07-03T10:38:56.226Z,40.92
2023-07-03T10:41:51.838Z,39.59
2023-07-03T10:44:25.319Z,39.54
2023-07-03T10:47:18.720Z,39.08
2023-07-03T10:49:47.671Z,38.78
2023-07-03T10:52:59.518Z,38.83
2023-07-03T10:55:40.743Z,38.23
2023-07-03T10:58:34.700Z,37.39
2023-07-03T11:01:13.112Z,36.94
2023-07-03T11:03:47.652Z,37.86
2023-07-03T11:06:44.732Z,37.66
2023-07-03T11:09:30.596Z,38.21
2023-07-03T11:12:06.719Z,39.19
2023-07-03T11:15:01.223Z,39.77
2023-07-03T11:23:35.728Z,40.17
2023-07-03T11:28:41.834Z,39.87
2023-07-03T11:31:10.972Z,39.09
2023-07-03T11:36:51.577Z,39.23
2023-07-03T11:44:48.297Z,40.73
2023-07-03T11:47:28.668Z,41.48
2023-07-03T11:50:07.173Z,40.77
2023-07-03T11:52:40.589Z,40.41
2023-07-03T11:55:20.163Z,40.07
2023-07-03T11:58:04.443Z,40.47
2023-07-03T12:00:36.980Z,40.77
2023-07-03T12:26:50.163Z,38.25
2023-07-03T13:05:21.741Z,38.21
2023-07-03T13:07:51.796Z,37.82
2023-07-03T13:10:23.440Z,37.32
2023-07-03T13:13:27.661Z,36.11
2023-07-03T13:15:55.432Z,35.76
2023-07-03T13:25:54.954Z,34.14
2023-07-03T13:28:31.001Z,34.91
2023-07-03T13:31:17.674Z,35.54
2023-07-03T13:34:20.432Z,35.10
2023-07-03T13:37:01.608Z,34.73
2023-07-03T13:39:36.829Z,35.05
2023-07-03T13:42:11.765Z,35.16
2023-07-03T13:50:44.481Z,35.61
2023-07-03T14:08:34.455Z,35.62
2023-07-03T14:11:05.045Z,35.37
2023-07-03T14:13:35.097Z,35.28
2023-07-03T14:18:43.922Z,36.18
2023-07-03T14:21:19.896Z,36.46
2023-07-03T14:23:50.111Z,36.25
2023-07-03T14:26:20.609Z,36.58
2023-07-03T14:28:51.461Z,36.97
2023-07-03T15:06:43.240Z,38.32
2023-07-03T15:09:30.818Z,38.81
2023-07-03T15:12:17.026Z,39.10
2023-07-03T15:14:45.633Z,38.52
2023-07-03T15:20:30.813Z,37.52
2023-07-03T15:23:05.157Z,37.73
2023-07-03T15:25:33.952Z,37.61
2023-07-03T15:28:01.365Z,38.19
2023-07-03T15:30:31.892Z,38.75
2023-07-03T15:32:59.930Z,38.87
2023-07-03T15:35:29.462Z,38.18
2023-07-03T15:37:59.268Z,38.89
2023-07-03T18:09:30.229Z,40.28
2023-07-03T18:11:58.026Z,40.71
2023-07-03T18:14:33.919Z,40.48
2023-07-03T18:17:08.904Z,40.56
2023-07-03T18:19:39.586Z,41.03
2023-07-03T18:22:07.117Z,40.70
2023-07-03T18:24:38.599Z,40.81
2023-07-03T18:27:08.611Z,40.84
2023-07-03T18:32:37.416Z,41.50
2023-07-03T18:35:19.174Z,41.69
2023-07-03T18:37:46.275Z,41.74
2023-07-03T18:40:35.620Z,42.41
2023-07-03T19:29:16.334Z,45.90
2023-07-03T19:31:44.120Z,46.05
2023-07-03T19:34:11.010Z,46.23
2023-07-03T19:36:45.642Z,46.10
2023-07-03T19:39:14.526Z,46.24
2023-07-03T19:41:44.176Z,46.08
2023-07-03T19:44:11.616Z,46.18
2023-07-03T19:46:42.424Z,46.82
2023-07-03T19:49:09.631Z,46.55
2023-07-03T19:51:40.129Z,46.26
2023-07-03T19:54:07.370Z,47.04
2023-07-03T19:56:37.076Z,47.87
2023-07-03T19:59:14.192Z,47.90
2023-07-03T20:01:42.085Z,47.85
2023-07-03T20:04:17.720Z,47.49
2023-07-03T20:06:48.326Z,48.42
2023-07-03T20:09:21.086Z,48.30
2023-07-03T20:12:01.947Z,48.76
2023-07-03T20:14:33.220Z,48.45
2023-07-03T20:17:01.664Z,48.48
2023-07-03T20:20:01.881Z,49.48
2023-07-03T20:22:41.029Z,49.81
2023-07-03T21:36:49.005Z,88.40
2023-07-03T21:39:16.028Z,87.65
2023-07-03T21:41:43.204Z,86.79
2023-07-03T21:44:17.823Z,87.93
2023-07-03T21:46:47.742Z,84.71
2023-07-03T21:49:17.005Z,85.80
2023-07-03T21:51:44.382Z,87.80
2023-07-03T21:54:11.512Z,86.81
2023-07-03T21:56:39.725Z,87.64
2023-07-03T21:59:06.915Z,85.00
2023-07-03T22:01:39.467Z,86.96
2023-07-03T22:04:08.655Z,87.03
2023-07-03T22:06:36.071Z,87.37
2023-07-03T22:09:03.183Z,85.33
2023-07-03T22:11:30.643Z,86.63
2023-07-03T22:13:57.572Z,87.41
2023-07-03T22:16:24.863Z,86.68
2023-07-03T22:18:51.658Z,85.94
2023-07-03T22:21:21.949Z,87.30
2023-07-03T22:23:50.576Z,87.75
2023-07-03T22:26:17.847Z,87.65
2023-07-03T22:28:46.108Z,86.54
2023-07-03T22:31:12.834Z,87.77
2023-07-03T22:33:40.076Z,86.66
2023-07-03T22:36:10.168Z,86.37
2023-07-03T22:38:37.266Z,85.37
2023-07-03T22:41:04.663Z,85.13
2023-07-03T22:43:31.826Z,84.47
2023-07-03T22:46:06.293Z,84.12
2023-07-03T22:48:33.752Z,83.88
2023-07-03T22:51:02.341Z,83.49
2023-07-03T22:53:29.782Z,83.32
2023-07-03T22:56:02.237Z,83.52
2023-07-03T22:58:34.219Z,83.14
2023-07-03T23:01:10.273Z,83.70
2023-07-03T23:03:39.941Z,83.34
2023-07-03T23:06:07.427Z,82.12
2023-07-03T23:08:34.427Z,81.63
2023-07-03T23:11:03.224Z,81.71
2023-07-03T23:13:31.310Z,81.88
2023-07-03T23:16:07.450Z,81.96
2023-07-03T23:18:37.054Z,81.85
2023-07-03T23:21:08.168Z,81.99
2023-07-03T23:51:22.198Z,80.62
2023-07-03T23:53:50.933Z,81.29
2023-07-03T23:56:20.484Z,80.21
2023-07-03T23:58:49.876Z,80.98
